LL1B weather

Public forecast

Using degrees Celsius for public forecast. Weather courtesy of forecast.io.

Closest aviation weather report (METAR) to Arad Airport

Closest report is Ben Gurion International Airport, 49.4 nm (91.6 km) NNW. Retrieved 2020/08/09 07:20 UTC (0 seconds ago):

LLBG 090720Z 27011KT 9999 FEW035 SCT045 30/19 Q1007 NOSIG

Closest aviation forecast (TAF) to Arad Airport

Closest forecast is Ben Gurion International Airport, 49.4 nm (91.6 km) NNW. Retrieved 2020/08/09 06:09 UTC (1 hour ago):

TAF TAF LLBG 090505Z 0906/1006 21006KT 9999 SCT030 BECMG 0908/0910 27012KT BECMG 0916/0918 VRB04KT SCT025 BECMG 0921/0923 17006KT BKN025 TX30/0910Z TN26/1004Z